Date,TemperatureHighF,TemperatureAvgF,TemperatureLowF,DewpointHighF,DewpointAvgF,DewpointLowF,HumidityHigh,HumidityAvg,HumidityLow,PressureMaxIn,PressureMinIn,WindSpeedMaxMPH,WindSpeedAvgMPH,GustSpeedMaxMPH,PrecipitationSumIn
2013-5-1,86,75,66,63,58,54,81,58,39,28.91,28.73,0,-999,0,0.00
2013-5-2,72,55,46,59,40,28,69,58,46,29.29,28.88,0,-999,0,0.00
2013-5-3,68,54,41,29,25,18,53,35,17,29.29,29.03,0,-999,0,0.00
2013-5-4,82,62,39,35,24,18,48,26,12,29.03,28.85,0,-999,0,0.00
2013-5-5,74,62,45,40,32,23,44,33,25,29.12,28.94,0,-999,0,0.00
2013-5-6,77,62,46,44,37,31,58,41,27,29.12,28.94,0,-999,0,0.00
2013-5-7,85,68,48,47,40,35,65,39,21,29.06,28.88,0,-999,0,0.00
2013-5-8,83,75,66,58,54,42,72,48,36,28.97,28.82,0,-999,0,0.00
2013-5-9,76,69,65,64,60,52,92,73,50,28.94,28.76,0,-999,0,0.17
2013-5-10,87,70,59,64,56,50,92,65,35,29.00,28.76,0,-999,0,0.26
2013-5-11,79,69,60,58,50,40,84,54,29,29.09,28.97,0,-999,0,0.00
2013-5-12,80,67,55,47,42,33,65,42,23,29.21,29.09,0,-999,0,0.00
2013-5-13,86,69,47,49,39,34,65,38,19,29.21,29.09,0,-999,0,0.00
2013-5-14,85,74,60,60,51,40,69,46,28,29.18,28.94,0,-999,0,0.00
2013-5-15,84,74,60,69,63,58,98,69,49,29.92,28.76,10,-994,18,0.33
2013-5-16,88,75,64,68,65,59,93,72,41,28.88,28.67,0,-999,0,1.14
2013-5-17,91,81,73,68,66,62,81,61,41,28.85,28.76,0,-999,0,0.00
2013-5-18,94,81,71,67,61,54,82,53,31,28.88,28.76,0,-999,0,0.00
2013-5-19,91,80,71,65,61,56,74,54,38,28.82,28.70,0,-999,0,0.00
2013-5-20,91,81,72,66,63,60,78,57,37,28.82,28.64,0,-999,0,0.00
2013-5-21,89,77,69,69,63,52,77,63,42,28.85,28.67,0,-999,0,0.00
2013-5-22,89,75,55,60,52,47,77,48,24,28.91,28.79,0,-999,0,0.00
2013-5-23,86,79,72,66,64,60,78,62,45,29.00,28.85,0,-999,0,0.00
2013-5-24,81,73,67,68,66,62,93,78,61,29.09,28.97,0,-996,0,1.86
2013-5-25,80,69,67,73,59,-100,98,81,56,29.09,29.00,0,-999,0,1.80
2013-5-26,84,61,70,72,35,-100,94,62,54,29.06,28.91,0,-999,0,0.16
2013-5-27,87,77,70,66,64,61,84,65,44,28.97,28.79,0,-999,0,0.00
2013-5-28,88,79,72,66,63,60,77,60,40,28.85,28.73,0,-999,0,0.00
2013-5-29,85,77,73,70,65,63,78,68,50,28.85,28.67,4,-490,10,0.00
2013-5-30,88,80,74,68,65,63,77,63,44,28.79,28.70,3,-5,9,0.00
2013-5-31,89,82,75,68,66,64,78,61,45,28.85,28.70,4,-5,8,0.00